Main page
METAR-TAF:

METAR-TAF

Airports :

Athens, Greece

Athens International Airport

latitude: 37-56N, longitude: 023-56E, elevation: 94 m

Current weather observation

The report was made 46 minutes ago, at 16:20 UTC
Wind 4 kt from the South/Southeast, varying between East/Southeast and South
Temperature 31°C
Humidity 31%
Pressure 1014 hPa
Visibility 10 km or more
no clouds below 1500 m and no cumulonimbus

METAR: LGAV 231620Z 15004KT 120V190 CAVOK 31/12 Q1014 NOSIG

Time: 20:06 (17:06 UTC)

Forecast

The report was made 6 hours and 6 minutes ago, at 11:00 UTC
Forecast valid from 23 at 12 UTC to 24 at 12 UTC
Wind 8 kt from the East
Visibility 10 km or more
Few clouds at a height of 3000 ft
Becoming
from 23 at 16 UTC to 23 at 18 UTC
Wind 5 kt from variable directions
Becoming
from 24 at 06 UTC to 24 at 08 UTC
Wind 10 kt from the Northeast

TAF: LGAV 231100Z 2312/2412 09008KT 9999 FEW030 BECMG 2316/2318 VRB05KT BECMG 2406/2408 04010KT

Weather observations and forecasts of more than 4000 airports (METAR and TAF reports).

The available stations are represented by yellow and red dots on the map.

Hover mouse over dot to see the name of the station.

Then click to see weather observations and forecasts.

To change the map : click on the green buttons with a black cross to zoom in, on the green button with a dash to zoom out, or on the green arrows for adjacent maps.


METAR-TAF: